首页
METAR-TAF:

METAR-TAF

机场 :

昆明长水国际机场

昆明, 中华人民共和国

纬度: 25-01N, 经度: 102-41E, 海拔: 1892米

当前天气观测

该预报发布于31分钟前的04:00 UTC
风速16节,风向西南
温度 16°C
湿度 36%
气压 1024 hPa
能见度10公里或以上
1500米以下无云,无积雨云

METAR: ZPPP 180400Z 23008MPS CAVOK 16/01 Q1024 NOSIG

时间: 12:31 (04:31 UTC)

预报

该预报发布于9小时和18分钟前的19:13 UTC
预报有效从18日的 00点(UTC)到 18日的 24点(UTC)
风速14节,风向西南
能见度10公里或以上
1500米以下无云,无积雨云

TAF: ZPPP 171913Z 1800/1824 22007MPS CAVOK TX20/1808Z TN07/1823Z

超过4000个机场的气象观测和天气预报(METAR&TAF报告)。

可查询的气象台以黄色和红色小点在地图上表示。

将鼠标移到小点上方,可查看气象台名称。

然后点击查看天气观测和预报。

如需切换地图:点击带黑十字的绿色按钮放大地图;点击带横线的绿色按钮缩小地图;或者点击绿色箭头查看邻近地区的地图。


METAR-TAF: